Alton, Indiana
Current Conditions -  °F | °C
As of 3:58 PM on Thursday 27 Nov 2014 (Local Time) from KFTK Reporting Station
Overcast Overcast  
Wind Chill: 24°   Ceiling: 2200
Heat Index: 30°   Visibility: 10mi
Dew Point: 24°   Wind: 7mph
Humidity: 78%   Direction: 260°W
Pressure: 30.37"   Gusts: NA
Location:  38.1914°N, 86.3619°W
Report Text: KFTK 272058Z AUTO 26006KT 10SM OVC022 M01/M04 A3037 RMK AO2 SLP295 T10091043 52007
Loading
Personal Weather Stations






























Interactive Weather Map New forecast layout! Learn more

10-Day Weather Forecast

Advertisements
Track Severe Weather on mobile